createdAt,value
2022-08-27T00:00:51.523Z,11.18
2022-08-27T00:03:55.581Z,11.70
2022-08-27T00:06:56.888Z,11.02
2022-08-27T00:09:59.438Z,13.95
2022-08-27T00:13:02.007Z,13.02
2022-08-27T00:16:07.136Z,15.10
2022-08-27T00:19:07.967Z,14.07
2022-08-27T00:22:10.164Z,12.48
2022-08-27T00:25:13.275Z,12.55
2022-08-27T00:28:15.412Z,13.88
2022-08-27T00:31:17.373Z,15.68
2022-08-27T00:34:19.482Z,14.88
2022-08-27T00:37:20.705Z,13.90
2022-08-27T00:40:23.465Z,15.82
2022-08-27T00:43:42.574Z,20.00
2022-08-27T00:46:54.233Z,22.35
2022-08-27T00:50:11.250Z,16.77
2022-08-27T00:53:17.964Z,17.40
2022-08-27T00:56:24.332Z,19.38
2022-08-27T00:59:32.988Z,18.10
2022-08-27T01:02:34.336Z,19.60
2022-08-27T01:05:38.205Z,17.67
2022-08-27T01:08:45.798Z,17.67
2022-08-27T01:11:48.376Z,22.90
2022-08-27T01:14:50.090Z,18.00
2022-08-27T01:17:51.916Z,16.98
2022-08-27T01:21:24.860Z,17.08
2022-08-27T01:24:48.669Z,19.15
2022-08-27T01:27:51.312Z,22.77
2022-08-27T01:30:52.736Z,25.05
2022-08-27T01:34:02.839Z,28.05
2022-08-27T01:37:06.713Z,23.63
2022-08-27T01:40:09.062Z,25.10
2022-08-27T01:43:10.596Z,20.65
2022-08-27T01:46:12.270Z,21.02
2022-08-27T01:49:13.283Z,20.13
2022-08-27T01:52:19.253Z,20.75
2022-08-27T01:55:25.205Z,23.55
2022-08-27T01:58:30.546Z,21.42
2022-08-27T02:01:31.617Z,22.52
2022-08-27T02:04:33.349Z,24.92
2022-08-27T02:07:34.472Z,128.63
2022-08-27T02:10:39.333Z,146.32
2022-08-27T02:13:40.443Z,31.33
2022-08-27T02:16:52.177Z,34.60
2022-08-27T02:19:53.704Z,29.52
2022-08-27T02:22:54.777Z,29.98
2022-08-27T02:25:55.966Z,27.85
2022-08-27T02:28:58.094Z,32.78
2022-08-27T02:32:00.091Z,36.95
2022-08-27T02:35:03.408Z,44.47
2022-08-27T02:38:04.769Z,47.75
2022-08-27T02:41:06.700Z,56.53
2022-08-27T02:44:10.296Z,96.22
2022-08-27T02:47:12.456Z,63.08
2022-08-27T02:50:14.681Z,55.00
2022-08-27T02:53:15.712Z,58.35
2022-08-27T02:56:17.335Z,65.78
2022-08-27T02:59:23.903Z,56.60
2022-08-27T03:02:25.780Z,57.03
2022-08-27T03:05:29.039Z,53.72
2022-08-27T03:08:30.358Z,58.28
2022-08-27T03:14:38.986Z,38.92
2022-08-27T03:17:59.035Z,40.13
2022-08-27T03:21:02.174Z,49.92
2022-08-27T03:24:11.735Z,56.03
2022-08-27T03:27:15.938Z,56.67
2022-08-27T03:30:21.846Z,51.58
2022-08-27T03:33:23.232Z,46.92
2022-08-27T03:36:27.039Z,46.22
2022-08-27T03:39:28.264Z,43.92
2022-08-27T03:42:29.119Z,42.33
2022-08-27T03:45:30.430Z,42.08
2022-08-27T03:48:53.083Z,44.45
2022-08-27T03:51:59.045Z,42.03
2022-08-27T03:55:01.779Z,43.15
2022-08-27T03:58:03.502Z,52.28
2022-08-27T04:01:06.824Z,45.40
2022-08-27T04:04:07.915Z,40.33
2022-08-27T04:07:10.687Z,41.17
2022-08-27T04:10:13.959Z,37.08
2022-08-27T04:13:15.573Z,40.25
2022-08-27T04:16:17.278Z,35.63
2022-08-27T04:19:20.576Z,47.45
2022-08-27T04:22:23.965Z,45.72
2022-08-27T04:25:25.162Z,57.17
2022-08-27T04:28:26.545Z,52.22
2022-08-27T04:31:27.569Z,49.92
2022-08-27T04:34:30.320Z,50.05
2022-08-27T04:37:33.285Z,44.13
2022-08-27T04:40:54.728Z,39.40
2022-08-27T04:44:02.444Z,38.13
2022-08-27T04:47:06.151Z,41.35
2022-08-27T04:50:07.667Z,37.80
2022-08-27T04:53:10.964Z,35.92
2022-08-27T04:56:16.877Z,40.05
2022-08-27T04:59:17.654Z,43.28
2022-08-27T05:02:18.966Z,50.13
2022-08-27T05:05:20.254Z,39.40
2022-08-27T05:08:21.468Z,53.53
2022-08-27T05:11:27.309Z,51.97
2022-08-27T05:14:32.795Z,46.75
2022-08-27T05:17:34.068Z,53.63
2022-08-27T05:20:42.894Z,52.53
2022-08-27T05:23:43.629Z,46.42
2022-08-27T05:26:46.068Z,44.00
2022-08-27T05:29:46.896Z,113.10
2022-08-27T05:32:47.694Z,67.82
2022-08-27T05:35:55.906Z,66.68
2022-08-27T05:38:59.846Z,50.13
2022-08-27T05:42:00.786Z,46.80
2022-08-27T05:45:01.643Z,54.83
2022-08-27T05:48:03.157Z,53.10
2022-08-27T05:51:35.094Z,48.20
2022-08-27T05:54:35.962Z,41.20
2022-08-27T05:57:37.237Z,41.95
2022-08-27T06:01:01.680Z,34.67
2022-08-27T06:04:05.720Z,32.83
2022-08-27T06:07:09.419Z,31.80
2022-08-27T06:10:11.427Z,29.13
2022-08-27T06:13:12.668Z,23.42
2022-08-27T06:16:18.370Z,24.05
2022-08-27T06:19:19.800Z,21.50
2022-08-27T06:22:20.636Z,26.15
2022-08-27T06:25:21.535Z,23.83
2022-08-27T06:28:26.374Z,25.77
2022-08-27T06:31:28.255Z,20.92
2022-08-27T06:34:29.322Z,18.63
2022-08-27T06:37:31.120Z,17.67
2022-08-27T06:40:32.311Z,17.17
2022-08-27T06:43:36.128Z,17.17
2022-08-27T06:46:37.525Z,17.17
2022-08-27T06:49:41.583Z,18.70
2022-08-27T06:52:47.730Z,18.45
2022-08-27T06:55:50.178Z,20.92
2022-08-27T06:59:00.668Z,22.05
2022-08-27T07:02:01.910Z,19.20
2022-08-27T07:05:02.683Z,18.50
2022-08-27T07:08:05.014Z,17.65
2022-08-27T07:11:08.703Z,22.17
2022-08-27T07:14:10.042Z,22.83
2022-08-27T07:17:15.849Z,19.70
2022-08-27T07:20:20.637Z,20.07
2022-08-27T07:23:21.792Z,19.77
2022-08-27T07:26:23.964Z,19.77
2022-08-27T07:29:28.250Z,17.65
2022-08-27T07:32:31.769Z,16.63
2022-08-27T07:35:32.835Z,15.15
2022-08-27T07:38:35.739Z,14.77
2022-08-27T07:41:57.012Z,15.93
2022-08-27T07:44:58.599Z,14.48
2022-08-27T07:47:59.512Z,15.18
2022-08-27T07:51:05.346Z,15.82
2022-08-27T07:54:06.672Z,15.95
2022-08-27T07:57:08.690Z,11.57
2022-08-27T08:00:12.479Z,11.27
2022-08-27T08:03:13.712Z,10.82
2022-08-27T08:06:16.774Z,10.35
2022-08-27T08:09:18.438Z,9.68
2022-08-27T08:12:26.273Z,9.02
2022-08-27T08:15:27.914Z,8.05
2022-08-27T08:18:29.040Z,8.27
2022-08-27T08:21:30.169Z,7.82
2022-08-27T08:24:31.854Z,8.20
2022-08-27T08:27:32.918Z,8.98
2022-08-27T08:30:35.500Z,7.72
2022-08-27T08:33:37.600Z,7.78
2022-08-27T08:36:38.693Z,6.78
2022-08-27T08:39:39.950Z,4.82
2022-08-27T08:42:51.365Z,4.82
2022-08-27T08:45:54.505Z,4.90
2022-08-27T08:49:05.797Z,5.93
2022-08-27T08:52:31.622Z,5.07
2022-08-27T08:55:59.558Z,3.70
2022-08-27T08:59:23.702Z,4.10
2022-08-27T09:02:24.795Z,3.78
2022-08-27T09:05:28.260Z,4.30
2022-08-27T09:08:41.153Z,5.88
2022-08-27T09:11:59.411Z,6.20
2022-08-27T09:15:18.910Z,5.55
2022-08-27T09:18:19.747Z,5.28
2022-08-27T09:21:43.032Z,5.60
2022-08-27T09:25:09.415Z,5.05
2022-08-27T09:28:43.866Z,5.60
2022-08-27T09:32:05.856Z,5.68
2022-08-27T09:35:11.561Z,5.88
2022-08-27T09:38:28.542Z,6.30
2022-08-27T09:41:47.424Z,5.47
2022-08-27T09:44:53.384Z,5.80
2022-08-27T09:48:07.711Z,4.95
2022-08-27T09:51:14.398Z,5.32
2022-08-27T09:54:42.667Z,5.97
2022-08-27T09:57:43.642Z,4.68
2022-08-27T10:00:46.746Z,4.63
2022-08-27T10:03:49.628Z,5.15
2022-08-27T10:06:52.336Z,4.65
2022-08-27T10:10:05.862Z,4.22
2022-08-27T10:13:20.009Z,5.30
2022-08-27T10:17:05.156Z,5.40
2022-08-27T10:20:44.933Z,5.22
2022-08-27T10:24:11.653Z,6.20
2022-08-27T10:27:39.543Z,6.45
2022-08-27T10:31:11.699Z,6.65
2022-08-27T10:34:34.505Z,7.90
2022-08-27T10:38:10.020Z,9.53
2022-08-27T10:41:35.341Z,8.38
2022-08-27T10:44:46.382Z,9.63
2022-08-27T10:48:01.503Z,9.05
2022-08-27T10:51:41.680Z,11.45
2022-08-27T10:55:22.419Z,9.23
2022-08-27T10:58:43.477Z,8.43
2022-08-27T11:02:02.766Z,9.82
2022-08-27T11:05:18.267Z,9.10
2022-08-27T11:08:28.966Z,11.73
2022-08-27T11:12:12.893Z,11.00
2022-08-27T11:15:17.008Z,12.50
2022-08-27T11:18:39.335Z,12.23
2022-08-27T11:22:02.956Z,12.50
2022-08-27T11:25:15.969Z,12.98
2022-08-27T11:28:29.723Z,13.25
2022-08-27T11:31:48.891Z,13.45
2022-08-27T11:34:59.153Z,12.73
2022-08-27T11:38:30.226Z,12.82
2022-08-27T11:42:01.770Z,13.45
2022-08-27T11:45:38.784Z,13.65
2022-08-27T11:48:57.190Z,11.75
2022-08-27T11:52:08.621Z,10.95
2022-08-27T11:55:13.199Z,8.85
2022-08-27T11:58:21.869Z,10.60
2022-08-27T12:01:32.171Z,11.00
2022-08-27T12:04:41.923Z,9.60
2022-08-27T12:07:46.196Z,9.70
2022-08-27T12:11:37.067Z,10.05
2022-08-27T12:15:05.116Z,10.70
2022-08-27T12:18:41.743Z,11.02
2022-08-27T12:22:30.092Z,11.02
2022-08-27T12:25:31.439Z,11.07
2022-08-27T12:28:32.198Z,10.80
2022-08-27T12:31:36.061Z,10.23
2022-08-27T12:35:10.939Z,11.82
2022-08-27T12:38:32.523Z,12.20
2022-08-27T12:41:44.258Z,10.25
2022-08-27T12:44:45.799Z,10.95
2022-08-27T12:47:51.048Z,10.63
2022-08-27T12:51:14.221Z,13.55
2022-08-27T12:54:42.908Z,12.57
2022-08-27T12:58:22.307Z,12.05
2022-08-27T13:02:12.444Z,11.38
2022-08-27T13:05:19.432Z,12.10
2022-08-27T13:08:36.177Z,10.98
2022-08-27T13:11:55.768Z,10.88
2022-08-27T13:15:09.051Z,10.82
2022-08-27T13:18:12.176Z,9.55
2022-08-27T13:21:29.518Z,9.70
2022-08-27T13:24:48.927Z,9.85
2022-08-27T13:28:13.658Z,10.20
2022-08-27T13:31:16.855Z,10.32
2022-08-27T13:34:24.143Z,10.38
2022-08-27T13:37:34.088Z,9.80
2022-08-27T13:40:56.844Z,10.98
2022-08-27T13:44:05.953Z,10.30
2022-08-27T13:47:20.979Z,9.57
2022-08-27T13:50:30.229Z,9.27
2022-08-27T13:53:52.823Z,10.40
2022-08-27T13:56:55.205Z,10.57
2022-08-27T13:59:56.523Z,9.48
2022-08-27T14:03:01.044Z,9.38
2022-08-27T14:06:02.791Z,9.48
2022-08-27T14:09:29.463Z,9.77
2022-08-27T14:12:42.349Z,10.27
2022-08-27T14:15:55.425Z,9.25
2022-08-27T14:19:28.546Z,11.68
2022-08-27T14:22:37.200Z,10.10
2022-08-27T14:25:38.281Z,9.68
2022-08-27T14:28:39.298Z,8.35
2022-08-27T14:31:40.386Z,8.27
2022-08-27T14:34:41.394Z,7.32
2022-08-27T14:37:44.987Z,8.20
2022-08-27T14:40:49.102Z,8.80
2022-08-27T14:43:50.349Z,9.02
2022-08-27T14:46:53.247Z,11.65
2022-08-27T14:49:54.726Z,9.88
2022-08-27T14:52:55.958Z,5.43
2022-08-27T14:55:59.457Z,5.78
2022-08-27T14:59:00.215Z,6.25
2022-08-27T15:02:07.116Z,4.78
2022-08-27T15:05:11.779Z,5.70
2022-08-27T15:08:13.564Z,6.00
2022-08-27T15:11:26.670Z,5.85
2022-08-27T15:14:37.368Z,6.60
2022-08-27T15:17:38.732Z,5.82
2022-08-27T15:20:41.804Z,6.28
2022-08-27T15:23:47.624Z,6.80
2022-08-27T15:26:51.673Z,5.93
2022-08-27T15:29:53.334Z,5.82
2022-08-27T15:32:55.037Z,5.97
2022-08-27T15:35:58.921Z,5.55
2022-08-27T15:39:02.424Z,6.53
2022-08-27T15:42:06.805Z,6.22
2022-08-27T15:45:15.122Z,6.40
2022-08-27T15:48:16.497Z,6.18
2022-08-27T15:51:25.406Z,6.70
2022-08-27T15:54:26.728Z,6.47
2022-08-27T15:57:27.762Z,6.78
2022-08-27T16:00:33.918Z,6.60
2022-08-27T16:03:35.868Z,6.00
2022-08-27T16:06:38.786Z,5.65
2022-08-27T16:09:40.640Z,5.20
2022-08-27T16:12:41.908Z,5.05
2022-08-27T16:15:43.360Z,4.90
2022-08-27T16:18:44.512Z,4.50
2022-08-27T16:21:47.495Z,6.78
2022-08-27T16:24:50.564Z,6.07
2022-08-27T16:27:51.679Z,7.40
2022-08-27T16:30:55.929Z,6.32
2022-08-27T16:33:57.573Z,6.20
2022-08-27T16:36:58.637Z,6.80
2022-08-27T16:40:00.094Z,6.55
2022-08-27T16:43:01.893Z,5.65
2022-08-27T16:46:03.684Z,7.18
2022-08-27T16:49:23.413Z,4.97
2022-08-27T16:52:24.682Z,5.85
2022-08-27T16:55:25.758Z,5.30
2022-08-27T16:58:31.012Z,5.63
2022-08-27T17:01:33.521Z,5.50
2022-08-27T17:04:36.686Z,6.18
2022-08-27T17:07:44.075Z,6.43
2022-08-27T17:10:53.422Z,7.05
2022-08-27T17:13:58.881Z,5.47
2022-08-27T17:17:00.556Z,5.45
2022-08-27T17:20:02.759Z,5.35
2022-08-27T17:23:05.448Z,5.45
2022-08-27T17:26:10.851Z,5.45
2022-08-27T17:29:12.101Z,5.78
2022-08-27T17:32:13.477Z,5.50
2022-08-27T17:35:15.599Z,5.43
2022-08-27T17:38:17.181Z,5.68
2022-08-27T17:41:34.540Z,5.95
2022-08-27T17:44:37.790Z,8.20
2022-08-27T17:47:38.835Z,10.18
2022-08-27T17:50:39.841Z,10.10
2022-08-27T17:53:47.836Z,9.55
2022-08-27T17:56:49.087Z,14.35
2022-08-27T17:59:51.372Z,13.93
2022-08-27T18:02:53.804Z,13.38
2022-08-27T18:05:55.086Z,12.35
2022-08-27T18:08:56.262Z,14.30
2022-08-27T18:11:58.648Z,14.18
2022-08-27T18:15:20.539Z,14.02
2022-08-27T18:18:21.878Z,15.25
2022-08-27T18:21:25.412Z,13.30
2022-08-27T18:24:27.590Z,12.63
2022-08-27T18:27:32.901Z,12.13
2022-08-27T18:30:34.984Z,10.35
2022-08-27T18:33:37.610Z,8.25
2022-08-27T18:36:38.737Z,7.35
2022-08-27T18:39:40.783Z,7.70
2022-08-27T18:42:42.512Z,6.97
2022-08-27T18:45:43.816Z,7.57
2022-08-27T18:48:45.712Z,9.00
2022-08-27T18:51:50.643Z,8.43
2022-08-27T18:54:53.768Z,9.57
2022-08-27T18:57:55.143Z,8.35
2022-08-27T19:01:02.151Z,8.68
2022-08-27T19:04:05.229Z,11.40
2022-08-27T19:07:06.583Z,10.85
2022-08-27T19:10:08.114Z,12.18
2022-08-27T19:13:12.119Z,12.77
2022-08-27T19:16:46.126Z,12.50
2022-08-27T19:19:50.817Z,12.38
2022-08-27T19:22:51.896Z,12.35
2022-08-27T19:25:54.185Z,13.07
2022-08-27T19:28:58.381Z,14.32
2022-08-27T19:31:59.424Z,14.15
2022-08-27T19:35:01.135Z,11.80
2022-08-27T19:38:02.660Z,11.85
2022-08-27T19:41:05.390Z,11.93
2022-08-27T19:44:06.801Z,14.05
2022-08-27T19:47:11.066Z,14.13
2022-08-27T19:50:19.255Z,13.05
2022-08-27T19:53:20.670Z,13.52
2022-08-27T19:56:22.003Z,13.00
2022-08-27T19:59:22.828Z,12.55
2022-08-27T20:02:24.199Z,13.85
2022-08-27T20:05:25.345Z,12.65
2022-08-27T20:08:26.572Z,14.50
2022-08-27T20:11:27.743Z,14.90
2022-08-27T20:14:29.154Z,16.85
2022-08-27T20:17:32.012Z,13.07
2022-08-27T20:20:34.270Z,18.38
2022-08-27T20:23:35.692Z,15.00
2022-08-27T20:26:36.775Z,15.57
2022-08-27T20:29:37.996Z,15.20
2022-08-27T20:32:39.371Z,21.10
2022-08-27T20:35:40.362Z,15.63
2022-08-27T20:38:41.971Z,14.70
2022-08-27T20:41:43.104Z,18.10
2022-08-27T20:44:45.487Z,15.80
2022-08-27T20:47:49.904Z,17.23
2022-08-27T20:50:51.153Z,15.75
2022-08-27T20:53:52.884Z,20.63
2022-08-27T20:56:53.928Z,21.38
2022-08-27T21:00:13.597Z,17.10
2022-08-27T21:03:15.319Z,16.55
2022-08-27T21:06:16.197Z,15.65
2022-08-27T21:09:17.098Z,13.68
2022-08-27T21:12:22.564Z,16.15
2022-08-27T21:15:24.415Z,14.45
2022-08-27T21:18:29.642Z,15.13
2022-08-27T21:21:31.335Z,14.93
2022-08-27T21:24:34.004Z,14.95
2022-08-27T21:27:35.017Z,13.23
2022-08-27T21:30:37.347Z,16.05
2022-08-27T21:33:39.525Z,15.80
2022-08-27T21:36:40.890Z,14.18
2022-08-27T21:39:44.097Z,13.85
2022-08-27T21:42:45.026Z,15.93
2022-08-27T21:45:46.436Z,16.92
2022-08-27T21:48:58.465Z,17.52
2022-08-27T21:52:06.199Z,18.35
2022-08-27T21:55:08.043Z,16.90
2022-08-27T21:58:09.082Z,19.50
2022-08-27T22:01:10.079Z,14.20
2022-08-27T22:04:11.525Z,17.02
2022-08-27T22:07:13.368Z,17.70
2022-08-27T22:10:14.984Z,13.77
2022-08-27T22:13:17.006Z,15.45
2022-08-27T22:16:19.156Z,13.77
2022-08-27T22:19:21.573Z,14.38
2022-08-27T22:22:23.013Z,14.35
2022-08-27T22:25:24.242Z,13.32
2022-08-27T22:28:25.145Z,15.85
2022-08-27T22:31:26.588Z,13.15
2022-08-27T22:34:27.610Z,15.35
2022-08-27T22:37:29.109Z,12.85
2022-08-27T22:40:31.371Z,14.00
2022-08-27T22:43:36.362Z,19.05
2022-08-27T22:46:37.308Z,15.32
2022-08-27T22:49:38.746Z,15.55
2022-08-27T22:52:44.183Z,19.88
2022-08-27T22:55:49.873Z,17.40
2022-08-27T22:58:51.452Z,22.27
2022-08-27T23:01:55.818Z,24.45
2022-08-27T23:04:57.401Z,17.30
2022-08-27T23:07:59.069Z,18.90
2022-08-27T23:10:59.885Z,16.98
2022-08-27T23:14:01.220Z,16.13
2022-08-27T23:17:02.763Z,23.23
2022-08-27T23:20:07.342Z,19.50
2022-08-27T23:23:10.225Z,14.38
2022-08-27T23:26:30.056Z,13.38
2022-08-27T23:29:31.939Z,12.75
2022-08-27T23:32:33.096Z,13.70
2022-08-27T23:35:34.732Z,14.15
2022-08-27T23:38:35.919Z,16.17
2022-08-27T23:41:36.920Z,16.70
2022-08-27T23:44:38.295Z,14.13
2022-08-27T23:47:39.076Z,15.05
2022-08-27T23:50:40.966Z,17.88
2022-08-27T23:53:42.258Z,13.52
2022-08-27T23:56:43.087Z,12.32
2022-08-27T23:59:43.978Z,15.57
